Time;durP1;ratioP1;P1;durP2;ratioP2;P2;SDS_P1;SDS_P2;PMS_P1;PMS_P2;Temp;Humidity;BMP_temperature;BMP_pressure;BME280_temperature;BME280_humidity;BME280_pressure;Samples;Min_cycle;Max_cycle;Signal;HPM_P1;HPM_P2
2021/01/30 00:05:36;;;;;;;2.08;0.60;;;;;;;4.45;83.62;95716.25;9948369;29;20145;-75
2021/01/30 00:10:56;;;;;;;2.50;0.88;;;;;;;4.40;83.61;95708.31;9933609;29;20061;-75
2021/01/30 00:16:15;;;;;;;2.28;0.70;;;;;;;4.29;83.36;95699.44;9948111;29;20063;-75
2021/01/30 00:21:35;;;;;;;3.30;0.65;;;;;;;4.22;84.09;95685.88;9947198;29;20073;-76
2021/01/30 00:26:59;;;;;;;3.33;0.60;;;;;;;4.24;83.61;95691.50;9934652;29;20384;-76
2021/01/30 00:32:20;;;;;;;3.10;0.77;;;;;;;4.18;83.80;95694.66;9946999;29;20058;-76
2021/01/30 00:37:40;;;;;;;2.00;0.70;;;;;;;4.21;83.47;95687.91;9947445;29;20067;-76
2021/01/30 00:42:59;;;;;;;1.92;0.50;;;;;;;4.27;83.66;95696.56;9920865;29;20142;-76
2021/01/30 00:48:19;;;;;;;1.35;0.60;;;;;;;4.28;83.08;95686.25;9932632;29;20556;-76
2021/01/30 00:53:39;;;;;;;1.70;0.50;;;;;;;4.15;83.50;95679.28;9940219;29;20519;-76
2021/01/30 00:58:59;;;;;;;3.22;0.60;;;;;;;4.05;83.49;95694.53;9953042;29;20063;-76
2021/01/30 01:04:20;;;;;;;1.65;0.40;;;;;;;3.96;84.10;95696.81;9952972;29;20063;-76
2021/01/30 01:09:42;;;;;;;2.45;0.50;;;;;;;3.91;83.61;95700.66;9954153;29;20161;-76
2021/01/30 01:15:05;;;;;;;1.35;0.40;;;;;;;3.86;83.70;95695.47;9939480;29;20459;-76
2021/01/30 01:20:25;;;;;;;2.05;0.50;;;;;;;3.85;83.94;95685.75;9951795;29;20584;-75
2021/01/30 01:25:45;;;;;;;2.05;0.50;;;;;;;3.82;84.16;95684.19;9939498;29;20097;-75
2021/01/30 01:31:05;;;;;;;1.85;0.20;;;;;;;3.79;84.17;95683.38;9939374;29;20073;-75
2021/01/30 01:36:25;;;;;;;1.13;0.40;;;;;;;3.80;83.79;95659.97;9939011;29;20086;-76
2021/01/30 01:41:44;;;;;;;1.10;0.20;;;;;;;3.92;83.86;95655.16;9951254;29;20123;-76
2021/01/30 01:47:10;;;;;;;1.85;0.30;;;;;;;4.09;83.26;95654.06;9939431;29;20059;-75
2021/01/30 01:52:33;;;;;;;3.20;0.35;;;;;;;4.20;83.15;95642.28;9939795;29;20109;-76
2021/01/30 01:57:54;;;;;;;1.08;0.30;;;;;;;4.25;82.65;95629.44;9938562;29;20059;-76
2021/01/30 02:03:16;;;;;;;3.05;0.38;;;;;;;4.31;82.58;95611.16;9948865;29;20059;-76
2021/01/30 02:08:36;;;;;;;1.35;0.30;;;;;;;4.42;82.35;95600.69;9937672;29;20063;-75
2021/01/30 02:13:56;;;;;;;2.15;0.30;;;;;;;4.52;81.98;95604.03;9937800;29;20072;-76
2021/01/30 02:19:41;;;;;;;1.52;0.40;;;;;;;4.64;81.46;95606.75;9937150;29;20132;-76
2021/01/30 02:25:38;;;;;;;1.00;0.22;;;;;;;4.67;81.52;95606.25;9950694;29;20423;-76
2021/01/30 02:31:04;;;;;;;1.00;0.20;;;;;;;4.69;81.47;95589.06;9938377;29;20070;-76
2021/01/30 02:36:48;;;;;;;1.52;0.30;;;;;;;4.71;81.26;95595.41;9950232;29;20066;-76
2021/01/30 02:42:16;;;;;;;0.88;0.28;;;;;;;4.75;80.47;95595.66;9936271;29;20062;-76
2021/01/30 02:47:39;;;;;;;0.95;0.20;;;;;;;4.77;80.36;95598.53;9953251;29;20066;-75
2021/01/30 02:53:00;;;;;;;0.57;0.20;;;;;;;4.78;79.80;95593.72;9923708;29;20503;-76
2021/01/30 02:58:22;;;;;;;1.77;0.20;;;;;;;4.83;79.93;95598.88;9924115;29;20096;-75
2021/01/30 03:03:42;;;;;;;0.30;0.13;;;;;;;4.86;79.96;95581.06;9910626;29;20460;-75
2021/01/30 03:09:41;;;;;;;0.63;0.20;;;;;;;4.86;79.53;95575.53;9923205;29;20074;-76
2021/01/30 03:15:34;;;;;;;1.38;0.30;;;;;;;4.90;79.18;95583.31;9934324;29;20574;-75
2021/01/30 03:20:54;;;;;;;1.42;0.20;;;;;;;4.91;79.14;95551.56;9922534;29;20070;-76
2021/01/30 03:26:17;;;;;;;1.40;0.32;;;;;;;4.92;79.21;95549.53;9934856;29;20070;-75
2021/01/30 03:31:38;;;;;;;0.90;0.30;;;;;;;4.92;79.14;95586.19;9922971;29;20067;-76
2021/01/30 03:36:58;;;;;;;2.40;0.50;;;;;;;4.91;78.88;95559.16;9935556;29;20097;-76
2021/01/30 03:42:18;;;;;;;2.28;0.60;;;;;;;4.93;78.67;95550.97;9947037;29;20418;-75
2021/01/30 03:47:38;;;;;;;1.10;0.50;;;;;;;4.96;78.31;95566.34;9934616;29;20069;-76
2021/01/30 03:52:58;;;;;;;2.33;0.52;;;;;;;4.95;78.23;95567.69;9948213;29;20062;-75
2021/01/30 03:58:18;;;;;;;1.27;0.35;;;;;;;4.98;78.64;95569.22;9934290;29;20062;-75
2021/01/30 04:03:38;;;;;;;1.08;0.20;;;;;;;4.96;77.86;95561.53;9946950;29;20066;-75
2021/01/30 04:08:58;;;;;;;1.83;0.35;;;;;;;4.95;78.11;95554.56;9933959;29;20093;-75
2021/01/30 04:14:18;;;;;;;0.85;0.30;;;;;;;4.95;77.92;95553.84;9876239;30;20063;-76
2021/01/30 04:19:39;;;;;;;0.88;0.30;;;;;;;4.97;78.12;95565.72;9871623;30;20432;-76
2021/01/30 04:24:59;;;;;;;1.15;0.40;;;;;;;4.98;78.35;95569.22;9859174;30;20067;-76
2021/01/30 04:30:22;;;;;;;1.00;0.30;;;;;;;5.01;77.79;95563.16;9871241;30;20067;-76
2021/01/30 04:35:42;;;;;;;2.50;0.30;;;;;;;5.04;77.75;95556.44;9872485;30;20069;-76
2021/01/30 04:41:43;;;;;;;1.20;0.22;;;;;;;5.05;77.79;95568.94;9859246;30;20060;-76
2021/01/30 04:47:38;;;;;;;0.80;0.30;;;;;;;5.07;78.31;95585.63;9884398;30;20055;-76
2021/01/30 04:53:40;;;;;;;1.47;0.40;;;;;;;5.04;78.60;95597.91;9907771;30;20055;-76
2021/01/30 04:59:35;;;;;;;1.55;0.20;;;;;;;4.95;79.53;95596.03;9907800;30;20059;-76
2021/01/30 05:04:55;;;;;;;1.33;0.20;;;;;;;4.80;80.38;95600.06;9909299;30;20063;-76
2021/01/30 05:10:28;;;;;;;0.80;0.10;;;;;;;4.79;80.59;95600.69;9914398;29;20123;-76
2021/01/30 05:15:50;;;;;;;1.40;0.20;;;;;;;4.79;80.59;95608.97;9970408;29;20068;-76
2021/01/30 05:22:04;;;;;;;1.30;0.32;;;;;;;4.78;80.87;95602.00;9983796;29;20533;-76
2021/01/30 05:27:35;;;;;;;1.10;0.30;;;;;;;4.82;80.65;95596.69;10010608;29;20386;-76
2021/01/30 05:33:23;;;;;;;0.70;0.10;;;;;;;4.81;80.55;95607.03;10007474;29;20141;-76
2021/01/30 05:38:50;;;;;;;0.90;0.10;;;;;;;4.79;80.05;95604.16;10025745;29;20058;-76
2021/01/30 05:44:47;;;;;;;0.50;0.10;;;;;;;4.75;80.60;95594.94;10001030;29;20521;-76
2021/01/30 05:50:16;;;;;;;0.80;0.20;;;;;;;4.68;80.43;95607.69;10027438;29;20190;-76
2021/01/30 05:55:38;;;;;;;0.38;0.20;;;;;;;4.65;80.68;95605.44;10014038;29;20049;-76
2021/01/30 06:01:16;;;;;;;0.93;0.10;;;;;;;4.68;80.07;95615.97;10001487;29;20066;-76
2021/01/30 06:06:38;;;;;;;1.35;0.10;;;;;;;4.71;81.79;95617.53;10026739;29;20140;-75
2021/01/30 06:12:02;;;;;;;1.15;0.10;;;;;;;4.71;81.00;95625.81;10013586;29;20125;-76
2021/01/30 06:17:21;;;;;;;0.52;0.10;;;;;;;4.74;81.00;95627.38;10026826;29;20057;-76
2021/01/30 06:22:41;;;;;;;0.52;0.10;;;;;;;4.77;80.95;95628.94;10012806;29;20065;-76
2021/01/30 06:28:21;;;;;;;0.20;0.10;;;;;;;4.86;80.67;95635.63;10012410;29;20129;-76
2021/01/30 06:34:03;;;;;;;0.88;0.20;;;;;;;5.01;80.77;95684.13;10003524;29;20097;-76
2021/01/30 06:39:41;;;;;;;0.63;0.22;;;;;;;4.95;80.63;95708.69;10024498;29;20066;-76
2021/01/30 06:45:05;;;;;;;0.20;0.00;;;;;;;4.48;80.18;95741.94;10011429;29;20073;-76
2021/01/30 06:50:32;;;;;;;0.30;0.08;;;;;;;4.22;79.53;95741.09;9973935;29;20070;-75
2021/01/30 06:55:53;;;;;;;0.43;0.10;;;;;;;4.07;79.84;95766.44;10010871;29;20093;-75
2021/01/30 07:01:15;;;;;;;0.03;0.03;;;;;;;4.00;78.42;95773.63;9986111;29;20057;-76
2021/01/30 07:07:16;;;;;;;0.10;0.00;;;;;;;3.92;78.68;95806.25;9997717;29;20066;-75
2021/01/30 07:12:51;;;;;;;0.60;0.10;;;;;;;3.84;78.63;95805.75;10011256;29;20121;-75
2021/01/30 07:18:31;;;;;;;0.47;0.10;;;;;;;3.83;79.03;95823.63;10010330;29;20514;-76
2021/01/30 07:24:15;;;;;;;0.35;0.10;;;;;;;3.78;77.50;95838.50;10010188;29;20076;-76
2021/01/30 07:30:02;;;;;;;0.30;0.10;;;;;;;3.71;78.28;95846.41;10009383;29;20105;-76
2021/01/30 07:35:26;;;;;;;0.10;0.08;;;;;;;3.70;78.26;95842.19;10012639;29;20510;-76
2021/01/30 07:41:00;;;;;;;0.35;0.10;;;;;;;3.63;76.28;95851.41;10009766;29;20062;-76
2021/01/30 07:46:26;;;;;;;0.30;0.10;;;;;;;3.59;78.25;95864.22;10009715;29;20421;-76
2021/01/30 07:51:51;;;;;;;0.65;0.17;;;;;;;3.58;78.63;95871.06;9997255;29;20122;-76
2021/01/30 07:57:38;;;;;;;0.30;0.15;;;;;;;3.53;76.52;95870.06;10010291;29;20152;-75
2021/01/30 08:03:43;;;;;;;0.22;0.10;;;;;;;3.34;77.41;95875.72;10013409;29;20092;-75
2021/01/30 08:09:29;;;;;;;0.80;0.30;;;;;;;3.28;77.21;95891.88;10008639;29;20093;-76
2021/01/30 08:15:05;;;;;;;0.80;0.35;;;;;;;3.17;77.11;95916.03;10009117;29;20058;-75
2021/01/30 08:20:51;;;;;;;1.50;0.80;;;;;;;2.98;77.98;95918.88;9995524;29;20065;-75
2021/01/30 08:26:57;;;;;;;1.55;0.88;;;;;;;2.79;78.13;95927.25;9998255;29;20509;-76
2021/01/30 08:32:25;;;;;;;1.75;1.00;;;;;;;2.45;77.73;95947.66;10006902;29;20069;-75
2021/01/30 08:38:01;;;;;;;4.15;1.90;;;;;;;2.34;78.34;95979.28;10010461;29;20509;-75
2021/01/30 08:43:49;;;;;;;4.60;2.90;;;;;;;2.28;78.31;95989.84;9984501;29;20092;-75
2021/01/30 08:49:15;;;;;;;5.45;4.13;;;;;;;2.13;77.50;96003.94;9969732;29;20062;-75
2021/01/30 08:54:38;;;;;;;7.07;5.35;;;;;;;2.06;76.91;96024.06;9969760;29;20498;-73
2021/01/30 08:59:59;;;;;;;10.20;6.18;;;;;;;2.06;74.79;96048.84;9957161;29;20058;-72
2021/01/30 09:05:21;;;;;;;7.60;5.88;;;;;;;2.27;75.73;96063.47;9969300;29;20062;-73
2021/01/30 09:10:41;;;;;;;8.88;6.65;;;;;;;2.13;72.09;96073.47;9982513;29;20078;-74
2021/01/30 09:16:01;;;;;;;10.18;7.30;;;;;;;2.05;75.27;96088.69;9950419;29;20072;-74
2021/01/30 09:22:11;;;;;;;9.50;7.20;;;;;;;2.36;72.62;96106.09;9975497;29;20153;-75
2021/01/30 09:27:33;;;;;;;10.02;7.03;;;;;;;3.37;73.97;96120.00;9962819;29;20413;-73
2021/01/30 09:32:53;;;;;;;9.43;6.63;;;;;;;3.86;72.55;96145.38;9988416;29;20070;-74
2021/01/30 09:38:48;;;;;;;8.07;6.00;;;;;;;5.11;71.98;96127.19;9988479;29;20141;-76
2021/01/30 09:44:27;;;;;;;7.45;6.03;;;;;;;7.64;72.29;96128.53;10021627;29;20160;-74
2021/01/30 09:49:55;;;;;;;7.63;5.85;;;;;;;14.32;63.32;96161.66;9995660;29;20437;-77
2021/01/30 09:55:15;;;;;;;8.00;6.03;;;;;;;10.92;59.63;96182.84;10009408;29;20061;-79
2021/01/30 10:00:41;;;;;;;10.80;5.43;;;;;;;7.54;58.91;96181.47;10038368;29;20144;-78
2021/01/30 10:06:16;;;;;;;5.65;3.63;;;;;;;5.38;59.41;96166.25;10033390;29;20073;-78
2021/01/30 10:11:36;;;;;;;;;;;;;;;4.01;63.17;96189.94;10030057;29;20077;-78
2021/01/30 10:17:02;;;;;;;7.68;4.45;;;;;;;3.13;64.06;96202.50;10016316;29;19924;-80
2021/01/30 10:22:23;;;;;;;5.28;3.45;;;;;;;2.63;65.49;96207.16;9988962;29;20379;-78
2021/01/30 10:27:43;;;;;;;5.13;3.53;;;;;;;2.41;65.67;96215.22;10013853;29;20061;-75
2021/01/30 10:33:06;;;;;;;6.50;3.90;;;;;;;2.49;65.12;96210.31;10025262;29;20054;-76
2021/01/30 10:38:27;;;;;;;4.47;3.13;;;;;;;2.71;65.92;96219.50;10011656;29;20058;-77
2021/01/30 10:43:47;;;;;;;6.28;3.80;;;;;;;2.90;65.10;96213.28;10013566;29;20069;-77
2021/01/30 10:49:24;;;;;;;4.43;3.30;;;;;;;3.03;64.81;96226.59;10011092;29;20058;-78
2021/01/30 10:54:44;;;;;;;4.90;3.22;;;;;;;3.23;63.87;96221.09;10012073;29;20069;-76
2021/01/30 11:00:26;;;;;;;4.72;2.75;;;;;;;3.54;63.27;96230.19;10009961;29;20413;-72
2021/01/30 11:05:46;;;;;;;3.05;2.53;;;;;;;3.34;63.33;96226.72;9999142;29;20066;-73
2021/01/30 11:11:07;;;;;;;5.47;3.20;;;;;;;3.11;62.03;96221.69;10009317;29;20072;-74
2021/01/30 11:16:33;;;;;;;3.88;2.80;;;;;;;3.02;62.03;96238.94;10009255;29;20069;-74
2021/01/30 11:22:17;;;;;;;3.33;2.83;;;;;;;2.79;61.68;96241.38;10010735;29;20062;-76
2021/01/30 11:27:49;;;;;;;4.03;2.78;;;;;;;2.75;62.96;96232.81;10009369;29;20066;-77
2021/01/30 11:33:14;;;;;;;3.40;2.50;;;;;;;2.82;63.03;96245.75;10009988;29;20144;-77
2021/01/30 11:38:34;;;;;;;3.10;2.47;;;;;;;2.66;62.05;96250.78;9996352;29;20069;-77
2021/01/30 11:43:54;;;;;;;3.70;2.70;;;;;;;2.41;62.45;96253.78;10008532;29;20138;-77
2021/01/30 11:49:15;;;;;;;3.65;2.42;;;;;;;2.52;62.19;96261.50;10008384;29;20091;-77
2021/01/30 11:54:34;;;;;;;2.58;2.05;;;;;;;2.53;62.32;96268.47;10008538;29;20625;-78
2021/01/30 11:59:54;;;;;;;3.13;2.05;;;;;;;2.60;61.84;96272.38;10021463;29;20066;-78
2021/01/30 12:05:13;;;;;;;3.05;2.03;;;;;;;2.62;62.03;96269.06;10021493;29;20446;-78
2021/01/30 12:10:34;;;;;;;2.92;1.95;;;;;;;2.75;61.51;96266.63;10004893;29;20067;-78
2021/01/30 12:15:53;;;;;;;3.13;1.90;;;;;;;2.68;60.90;96255.72;9981221;29;20062;-75
2021/01/30 12:21:13;;;;;;;2.95;2.10;;;;;;;2.51;59.67;96243.53;9972865;29;20058;-80
2021/01/30 12:26:35;;;;;;;4.65;2.30;;;;;;;2.39;60.80;96250.88;10009141;29;20069;-79
2021/01/30 12:31:59;;;;;;;2.55;2.00;;;;;;;2.28;61.68;96263.16;10478440;23;20034;-80
2021/01/30 12:37:35;;;;;;;2.70;1.83;;;;;;;2.12;61.29;96281.22;9981759;29;20077;-73
2021/01/30 12:42:55;;;;;;;3.05;2.30;;;;;;;1.98;61.53;96280.16;9983549;29;20094;-76
2021/01/30 12:48:16;;;;;;;3.72;2.60;;;;;;;1.94;61.50;96272.31;9978553;29;20089;-78
2021/01/30 12:53:35;;;;;;;4.13;2.75;;;;;;;1.87;61.50;96284.16;9976625;29;20058;-80
2021/01/30 12:58:55;;;;;;;4.25;3.22;;;;;;;1.84;61.26;96270.81;9978393;29;20062;-80
2021/01/30 13:04:15;;;;;;;4.10;2.92;;;;;;;1.77;61.56;96294.38;9978688;29;20065;-80
2021/01/30 13:09:35;;;;;;;5.13;3.25;;;;;;;1.70;62.14;96278.69;9985286;29;20126;-80
2021/01/30 13:14:55;;;;;;;4.60;3.67;;;;;;;1.69;61.69;96282.75;9989827;29;20063;-79
2021/01/30 13:20:16;;;;;;;5.03;3.67;;;;;;;1.78;61.96;96279.31;9989503;29;20067;-78
2021/01/30 13:44:36;;;;;;;4.75;3.40;;;;;;;1.79;61.64;96299.31;10091509;23;20059;-79
2021/01/30 13:50:26;;;;;;;5.15;3.17;;;;;;;1.77;60.66;96299.16;9983144;29;20070;-84
2021/01/30 13:55:51;;;;;;;4.93;3.67;;;;;;;1.80;61.32;96289.75;10215930;23;20066;-79
2021/01/30 14:01:11;;;;;;;4.63;3.42;;;;;;;1.85;61.10;96300.50;9971917;29;20526;-79
2021/01/30 14:06:32;;;;;;;3.95;3.30;;;;;;;2.05;61.28;96303.38;9997524;29;20046;-81
2021/01/30 14:12:05;;;;;;;3.90;3.20;;;;;;;2.15;61.62;96298.63;10002936;29;20066;-81
2021/01/30 14:17:26;;;;;;;3.72;3.10;;;;;;;2.24;60.60;96292.44;9980853;29;20072;-77
2021/01/30 14:22:49;;;;;;;4.13;3.30;;;;;;;2.42;61.01;96285.53;10008158;29;20042;-81
2021/01/30 14:28:29;;;;;;;4.10;3.10;;;;;;;2.33;60.85;96296.53;10430313;24;20430;-78
2021/01/30 14:33:49;;;;;;;4.53;3.05;;;;;;;2.07;60.01;96293.22;9994719;29;20066;-77
2021/01/30 14:39:09;;;;;;;3.85;3.15;;;;;;;1.81;59.93;96293.94;9985653;29;20062;-79
2021/01/30 14:44:28;;;;;;;4.07;3.22;;;;;;;1.63;60.72;96307.75;9991419;29;20613;-80
2021/01/30 14:49:49;;;;;;;5.18;3.97;;;;;;;1.48;60.61;96307.94;9986722;29;20073;-78
2021/01/30 14:55:10;;;;;;;6.03;4.30;;;;;;;1.36;61.40;96312.50;10022916;29;20068;-78
2021/01/30 15:00:30;;;;;;;5.45;4.05;;;;;;;1.28;60.80;96322.84;10024487;29;20098;-79
2021/01/30 15:05:51;;;;;;;5.53;4.25;;;;;;;1.18;61.70;96328.25;10019083;29;20544;-80
2021/01/30 15:11:11;;;;;;;7.57;4.50;;;;;;;1.13;61.47;96331.97;10012121;29;20065;-79
2021/01/30 16:22:03;;;;;;;7.45;5.13;;;;;;;0.66;62.33;96355.66;9945111;29;20061;-75
2021/01/30 16:27:23;;;;;;;7.07;4.93;;;;;;;0.69;62.50;96362.78;9919381;29;20069;-76
2021/01/30 16:32:43;;;;;;;6.95;5.10;;;;;;;0.69;62.50;96359.31;9907975;29;20067;-76
2021/01/30 16:38:07;;;;;;;7.20;5.20;;;;;;;0.65;62.17;96354.19;9920079;29;20063;-74
2021/01/30 16:43:28;;;;;;;7.15;5.32;;;;;;;0.63;62.93;96359.53;9933712;29;20062;-76
2021/01/30 16:48:48;;;;;;;7.85;6.05;;;;;;;0.65;62.47;96356.22;9950449;29;20062;-78
2021/01/30 16:54:08;;;;;;;9.50;7.00;;;;;;;0.60;62.56;96368.91;9946129;29;20109;-76
2021/01/30 17:18:51;;;;;;;8.32;6.30;;;;;;;0.52;63.17;96387.44;10360926;23;20119;-79
2021/01/30 17:24:11;;;;;;;11.65;7.38;;;;;;;0.48;62.79;96385.09;9973575;29;20066;-79
2021/01/30 17:29:31;;;;;;;10.00;7.63;;;;;;;0.49;63.39;96394.78;9970204;29;20497;-77
2021/01/30 17:34:50;;;;;;;9.77;7.75;;;;;;;0.46;63.13;96393.13;9966423;29;20073;-77
2021/01/30 17:40:12;;;;;;;11.85;8.57;;;;;;;0.45;63.50;96391.69;9988695;29;20533;-75
2021/01/30 17:45:34;;;;;;;11.88;8.35;;;;;;;0.49;63.40;96396.81;9988387;29;20070;-77
2021/01/30 17:50:53;;;;;;;11.52;8.13;;;;;;;0.42;63.91;96392.09;9961865;29;20069;-79
2021/01/30 17:56:13;;;;;;;12.25;9.23;;;;;;;0.40;63.65;96389.91;9994721;29;20066;-77
2021/01/30 18:01:33;;;;;;;13.00;8.98;;;;;;;0.38;63.40;96386.97;9977085;29;20062;-77
2021/01/30 18:06:53;;;;;;;12.85;9.70;;;;;;;0.40;63.35;96391.91;9988579;29;20058;-77
2021/01/30 18:12:13;;;;;;;13.55;9.38;;;;;;;0.36;63.78;96397.78;9974283;29;20098;-78
2021/01/30 18:17:36;;;;;;;10.05;6.57;;;;;;;0.23;62.93;96398.78;9974037;29;20078;-75
2021/01/30 18:22:57;;;;;;;9.13;6.82;;;;;;;0.08;63.31;96395.38;9973643;29;20065;-75
2021/01/30 18:28:17;;;;;;;9.05;6.50;;;;;;;-0.08;63.54;96400.22;9948019;29;20094;-75
2021/01/30 18:33:36;;;;;;;9.70;6.22;;;;;;;-0.16;63.81;96394.03;9973403;29;20058;-74
2021/01/30 18:38:56;;;;;;;7.70;5.93;;;;;;;-0.14;63.68;96396.94;9986539;29;20063;-74
2021/01/30 18:44:16;;;;;;;7.05;5.28;;;;;;;-0.20;63.72;96399.88;9986214;29;20098;-74
2021/01/30 18:49:36;;;;;;;6.50;4.88;;;;;;;-0.26;63.34;96409.63;9960118;29;20459;-74
2021/01/30 18:54:56;;;;;;;6.70;4.97;;;;;;;-0.40;62.91;96411.84;9972106;29;20062;-74
2021/01/30 19:00:20;;;;;;;6.47;4.80;;;;;;;-0.57;63.47;96409.72;9986592;29;20065;-74
2021/01/30 19:05:40;;;;;;;6.82;4.97;;;;;;;-0.69;63.65;96414.09;9959835;29;20062;-73
2021/01/30 19:11:00;;;;;;;7.05;5.15;;;;;;;-0.74;64.60;96429.47;9958540;29;20460;-74
2021/01/30 19:16:19;;;;;;;8.73;5.47;;;;;;;-0.64;64.29;96424.16;9934354;29;20515;-73
2021/01/30 19:21:39;;;;;;;6.65;5.32;;;;;;;-0.63;64.04;96431.09;9921639;29;20066;-74
2021/01/30 19:26:59;;;;;;;8.85;5.90;;;;;;;-0.68;64.27;96429.25;9933753;29;20063;-74
2021/01/30 19:32:19;;;;;;;6.28;5.05;;;;;;;-0.77;64.74;96440.78;9933560;29;20063;-73
2021/01/30 19:37:39;;;;;;;8.63;6.22;;;;;;;-0.90;64.22;96439.72;9933999;29;20065;-73
2021/01/30 19:42:58;;;;;;;7.28;5.10;;;;;;;-0.96;65.21;96447.41;9947012;29;20062;-74
2021/01/30 19:48:19;;;;;;;6.85;5.32;;;;;;;-0.98;64.79;96441.72;9920483;29;20058;-74
2021/01/30 19:53:39;;;;;;;6.82;4.75;;;;;;;-1.00;64.68;96436.06;9917475;29;20146;-73
2021/01/30 19:58:59;;;;;;;7.47;5.03;;;;;;;-1.03;65.17;96442.66;9933308;29;20059;-74
2021/01/30 20:04:19;;;;;;;7.63;5.40;;;;;;;-1.01;64.55;96439.34;9920059;29;20119;-74
2021/01/30 20:09:39;;;;;;;6.03;4.22;;;;;;;-1.04;65.09;96440.47;9932639;29;20120;-74
2021/01/30 20:14:59;;;;;;;5.28;3.72;;;;;;;-1.05;64.95;96434.25;9932332;29;20086;-73
2021/01/30 20:20:19;;;;;;;5.47;4.18;;;;;;;-1.08;65.04;96440.06;9919696;29;20153;-73
2021/01/30 20:25:40;;;;;;;8.77;4.97;;;;;;;-1.06;64.42;96438.28;9926624;29;20092;-76
2021/01/30 20:31:00;;;;;;;6.40;4.15;;;;;;;-1.02;64.80;96441.38;9969525;29;20062;-76
2021/01/30 20:36:19;;;;;;;5.43;4.05;;;;;;;-1.02;64.44;96438.63;9969466;29;20111;-76
2021/01/30 20:41:39;;;;;;;6.75;4.10;;;;;;;-0.93;64.72;96440.09;9983167;29;20066;-76
2021/01/30 20:47:00;;;;;;;7.22;4.40;;;;;;;-0.94;64.84;96444.09;9982821;29;20062;-77
2021/01/30 20:52:19;;;;;;;6.75;4.40;;;;;;;-0.92;64.82;96439.53;9956891;29;20074;-76
2021/01/30 20:57:39;;;;;;;5.47;3.97;;;;;;;-0.97;64.63;96436.97;9982707;29;20069;-76
2021/01/30 21:02:59;;;;;;;7.03;4.25;;;;;;;-1.06;64.38;96437.50;9982693;29;20066;-76
2021/01/30 21:08:19;;;;;;;5.63;4.32;;;;;;;-1.08;64.87;96443.53;9973215;29;20067;-74
2021/01/30 21:13:39;;;;;;;6.60;4.40;;;;;;;-1.17;65.00;96446.81;9975656;29;20132;-74
2021/01/30 21:18:59;;;;;;;6.93;4.78;;;;;;;-1.24;65.29;96462.00;9963440;29;20136;-76
2021/01/30 21:24:18;;;;;;;7.30;4.65;;;;;;;-1.36;65.18;96454.66;9962769;29;20467;-74
2021/01/30 21:29:39;;;;;;;7.15;4.60;;;;;;;-1.44;65.21;96449.19;9975388;29;20078;-75
2021/01/30 21:34:59;;;;;;;7.60;5.10;;;;;;;-1.56;65.54;96453.53;9962259;29;20068;-75
2021/01/30 21:40:19;;;;;;;8.48;5.40;;;;;;;-1.58;65.59;96447.88;9975585;29;20062;-75
2021/01/30 21:45:38;;;;;;;10.57;6.30;;;;;;;-1.61;65.61;96446.97;9949422;29;20070;-74
2021/01/30 21:50:59;;;;;;;9.73;5.88;;;;;;;-1.57;65.68;96452.81;9949567;29;20073;-76
2021/01/30 21:56:19;;;;;;;8.18;5.55;;;;;;;-1.54;65.73;96451.00;9962477;29;20506;-73
2021/01/30 22:01:39;;;;;;;8.02;5.60;;;;;;;-1.53;65.80;96452.47;9976779;29;20058;-73
2021/01/30 22:06:59;;;;;;;9.07;5.95;;;;;;;-1.50;65.95;96446.63;9975340;29;20066;-73
2021/01/30 22:12:18;;;;;;;11.45;5.85;;;;;;;-1.47;65.63;96437.31;9963652;29;20098;-73
2021/01/30 22:17:38;;;;;;;7.82;5.47;;;;;;;-1.41;65.87;96463.78;9949719;29;20066;-73
2021/01/30 22:22:58;;;;;;;7.43;5.28;;;;;;;-1.34;65.84;96450.13;9975039;29;20062;-73
2021/01/30 22:28:18;;;;;;;8.25;5.65;;;;;;;-1.29;65.22;96449.19;9988323;29;20062;-73
2021/01/30 22:33:38;;;;;;;9.05;5.95;;;;;;;-1.31;66.12;96440.81;9975580;29;20468;-73
2021/01/30 22:38:58;;;;;;;9.43;6.03;;;;;;;-1.24;66.16;96437.34;9974312;29;20058;-73
2021/01/30 22:44:18;;;;;;;9.50;6.15;;;;;;;-1.23;65.44;96435.34;9962181;29;20518;-73
2021/01/30 22:49:38;;;;;;;10.07;5.82;;;;;;;-1.11;65.82;96441.19;9948623;29;20070;-73
2021/01/30 22:54:58;;;;;;;9.43;5.72;;;;;;;-1.06;65.40;96443.75;9948403;29;20064;-73
2021/01/30 23:00:24;;;;;;;10.88;6.72;;;;;;;-1.02;65.56;96426.94;9949476;29;20069;-73
2021/01/30 23:05:45;;;;;;;8.32;5.97;;;;;;;-0.98;65.50;96433.50;9974303;29;20506;-73
2021/01/30 23:11:04;;;;;;;11.00;6.82;;;;;;;-0.95;65.66;96442.66;9949184;29;20062;-73
2021/01/30 23:16:24;;;;;;;10.05;6.22;;;;;;;-0.92;65.43;96450.50;9987185;29;20429;-73
2021/01/30 23:21:44;;;;;;;11.70;6.53;;;;;;;-0.92;65.57;96455.97;9974018;29;20062;-73
2021/01/30 23:27:05;;;;;;;10.70;7.05;;;;;;;-0.87;65.47;96462.53;9947516;29;20145;-73
2021/01/30 23:32:24;;;;;;;8.18;6.35;;;;;;;-0.84;65.43;96466.94;9946318;29;20066;-73
2021/01/30 23:37:44;;;;;;;10.13;6.90;;;;;;;-0.90;65.52;96456.16;9972373;29;20062;-74
2021/01/30 23:43:05;;;;;;;10.05;6.60;;;;;;;-0.95;65.78;96461.81;9960828;29;20123;-73
2021/01/30 23:48:25;;;;;;;10.48;7.03;;;;;;;-1.01;65.46;96462.00;9945834;29;20388;-73
2021/01/30 23:53:44;;;;;;;11.48;6.75;;;;;;;-1.04;65.81;96474.06;9947687;29;20058;-73
2021/01/30 23:59:05;;;;;;;10.27;7.10;;;;;;;-1.06;65.86;96471.13;9946613;29;20061;-73
